sensor_id;sensor_type;location;lat;lon;timestamp;P1;durP1;ratioP1;P2;durP2;ratioP2
11303;SDS011;5707;49.588;12.148;2023-02-08T00:00:34;13.77;;;12.38;;
11303;SDS011;5707;49.588;12.148;2023-02-08T00:02:59;14.75;;;13.30;;
11303;SDS011;5707;49.588;12.148;2023-02-08T00:05:25;14.35;;;12.93;;
11303;SDS011;5707;49.588;12.148;2023-02-08T00:07:50;14.98;;;13.45;;
11303;SDS011;5707;49.588;12.148;2023-02-08T00:10:16;14.43;;;12.98;;
11303;SDS011;5707;49.588;12.148;2023-02-08T00:12:41;14.63;;;13.18;;
11303;SDS011;5707;49.588;12.148;2023-02-08T00:15:07;13.73;;;12.52;;
11303;SDS011;5707;49.588;12.148;2023-02-08T00:17:33;14.05;;;12.38;;
11303;SDS011;5707;49.588;12.148;2023-02-08T00:19:58;14.32;;;12.82;;
11303;SDS011;5707;49.588;12.148;2023-02-08T00:22:24;14.93;;;13.45;;
11303;SDS011;5707;49.588;12.148;2023-02-08T00:24:50;12.27;;;11.27;;
11303;SDS011;5707;49.588;12.148;2023-02-08T00:27:16;14.13;;;12.63;;
11303;SDS011;5707;49.588;12.148;2023-02-08T00:29:42;13.25;;;11.95;;
11303;SDS011;5707;49.588;12.148;2023-02-08T00:32:07;12.30;;;11.13;;
11303;SDS011;5707;49.588;12.148;2023-02-08T00:34:34;12.18;;;11.10;;
11303;SDS011;5707;49.588;12.148;2023-02-08T00:37:00;12.05;;;10.88;;
11303;SDS011;5707;49.588;12.148;2023-02-08T00:39:26;12.70;;;11.60;;
11303;SDS011;5707;49.588;12.148;2023-02-08T00:41:51;12.57;;;11.45;;
11303;SDS011;5707;49.588;12.148;2023-02-08T00:44:17;11.93;;;10.73;;
11303;SDS011;5707;49.588;12.148;2023-02-08T00:46:43;11.70;;;10.70;;
11303;SDS011;5707;49.588;12.148;2023-02-08T00:49:08;11.18;;;10.18;;
11303;SDS011;5707;49.588;12.148;2023-02-08T00:51:34;10.60;;;9.52;;
11303;SDS011;5707;49.588;12.148;2023-02-08T00:53:59;9.95;;;9.15;;
11303;SDS011;5707;49.588;12.148;2023-02-08T00:56:25;9.70;;;8.85;;
11303;SDS011;5707;49.588;12.148;2023-02-08T00:58:51;9.45;;;8.55;;
11303;SDS011;5707;49.588;12.148;2023-02-08T01:01:16;9.82;;;8.82;;
11303;SDS011;5707;49.588;12.148;2023-02-08T01:03:42;9.55;;;8.63;;
11303;SDS011;5707;49.588;12.148;2023-02-08T01:06:09;9.55;;;8.65;;
11303;SDS011;5707;49.588;12.148;2023-02-08T01:08:37;9.88;;;8.98;;
11303;SDS011;5707;49.588;12.148;2023-02-08T01:11:11;9.13;;;8.40;;
11303;SDS011;5707;49.588;12.148;2023-02-08T01:13:39;9.93;;;8.93;;
11303;SDS011;5707;49.588;12.148;2023-02-08T01:16:09;10.50;;;9.52;;
11303;SDS011;5707;49.588;12.148;2023-02-08T01:18:37;10.43;;;9.52;;
11303;SDS011;5707;49.588;12.148;2023-02-08T01:21:05;10.05;;;9.20;;
11303;SDS011;5707;49.588;12.148;2023-02-08T01:23:32;9.93;;;9.02;;
11303;SDS011;5707;49.588;12.148;2023-02-08T01:25:57;10.25;;;9.38;;
11303;SDS011;5707;49.588;12.148;2023-02-08T01:28:23;10.50;;;9.63;;
11303;SDS011;5707;49.588;12.148;2023-02-08T01:30:49;12.60;;;11.27;;
11303;SDS011;5707;49.588;12.148;2023-02-08T01:33:14;11.55;;;10.43;;
11303;SDS011;5707;49.588;12.148;2023-02-08T01:35:40;11.15;;;10.10;;
11303;SDS011;5707;49.588;12.148;2023-02-08T01:38:05;13.45;;;12.18;;
11303;SDS011;5707;49.588;12.148;2023-02-08T01:40:31;13.25;;;11.95;;
11303;SDS011;5707;49.588;12.148;2023-02-08T01:42:56;9.93;;;9.10;;
11303;SDS011;5707;49.588;12.148;2023-02-08T01:45:23;10.73;;;9.88;;
11303;SDS011;5707;49.588;12.148;2023-02-08T01:47:54;10.23;;;9.32;;
11303;SDS011;5707;49.588;12.148;2023-02-08T01:50:25;9.40;;;8.70;;
11303;SDS011;5707;49.588;12.148;2023-02-08T01:52:56;10.43;;;9.52;;
11303;SDS011;5707;49.588;12.148;2023-02-08T01:55:23;10.50;;;9.55;;
11303;SDS011;5707;49.588;12.148;2023-02-08T01:57:58;11.18;;;10.18;;
11303;SDS011;5707;49.588;12.148;2023-02-08T02:00:26;10.95;;;10.05;;
11303;SDS011;5707;49.588;12.148;2023-02-08T02:02:53;10.32;;;9.52;;
11303;SDS011;5707;49.588;12.148;2023-02-08T02:05:20;10.20;;;9.30;;
11303;SDS011;5707;49.588;12.148;2023-02-08T02:07:48;10.15;;;9.27;;
11303;SDS011;5707;49.588;12.148;2023-02-08T02:10:16;10.52;;;9.73;;
11303;SDS011;5707;49.588;12.148;2023-02-08T02:12:45;10.55;;;9.23;;
11303;SDS011;5707;49.588;12.148;2023-02-08T02:15:11;11.48;;;10.55;;
11303;SDS011;5707;49.588;12.148;2023-02-08T02:17:37;11.90;;;10.88;;
11303;SDS011;5707;49.588;12.148;2023-02-08T02:26:16;10.98;;;10.15;;
11303;SDS011;5707;49.588;12.148;2023-02-08T02:29:07;10.55;;;9.40;;
11303;SDS011;5707;49.588;12.148;2023-02-08T02:34:48;10.73;;;9.93;;
11303;SDS011;5707;49.588;12.148;2023-02-08T02:51:44;11.18;;;10.18;;
11303;SDS011;5707;49.588;12.148;2023-02-08T02:54:15;12.68;;;9.90;;
11303;SDS011;5707;49.588;12.148;2023-02-08T02:56:46;11.18;;;10.23;;
11303;SDS011;5707;49.588;12.148;2023-02-08T02:59:17;11.27;;;10.27;;
11303;SDS011;5707;49.588;12.148;2023-02-08T03:01:44;10.38;;;9.38;;
11303;SDS011;5707;49.588;12.148;2023-02-08T03:12:18;11.07;;;10.18;;
11303;SDS011;5707;49.588;12.148;2023-02-08T03:17:40;10.07;;;9.25;;
11303;SDS011;5707;49.588;12.148;2023-02-08T03:20:35;10.65;;;9.63;;
11303;SDS011;5707;49.588;12.148;2023-02-08T03:23:08;9.98;;;9.18;;
11303;SDS011;5707;49.588;12.148;2023-02-08T03:28:23;10.38;;;9.48;;
11303;SDS011;5707;49.588;12.148;2023-02-08T03:31:06;10.25;;;9.48;;
11303;SDS011;5707;49.588;12.148;2023-02-08T03:33:52;10.27;;;9.43;;
11303;SDS011;5707;49.588;12.148;2023-02-08T03:36:25;10.40;;;9.55;;
11303;SDS011;5707;49.588;12.148;2023-02-08T03:39:02;11.50;;;10.35;;
11303;SDS011;5707;49.588;12.148;2023-02-08T03:41:34;11.88;;;10.73;;
11303;SDS011;5707;49.588;12.148;2023-02-08T03:44:04;11.00;;;9.90;;
11303;SDS011;5707;49.588;12.148;2023-02-08T03:46:48;11.30;;;10.30;;
11303;SDS011;5707;49.588;12.148;2023-02-08T03:49:19;10.48;;;9.43;;
11303;SDS011;5707;49.588;12.148;2023-02-08T03:51:48;10.70;;;9.65;;
11303;SDS011;5707;49.588;12.148;2023-02-08T03:54:16;11.30;;;10.30;;
11303;SDS011;5707;49.588;12.148;2023-02-08T03:59:33;11.55;;;10.55;;
11303;SDS011;5707;49.588;12.148;2023-02-08T04:02:03;10.25;;;9.35;;
11303;SDS011;5707;49.588;12.148;2023-02-08T04:04:31;12.05;;;9.88;;
11303;SDS011;5707;49.588;12.148;2023-02-08T04:07:00;10.85;;;9.95;;
11303;SDS011;5707;49.588;12.148;2023-02-08T04:09:26;12.00;;;10.73;;
11303;SDS011;5707;49.588;12.148;2023-02-08T04:11:52;12.00;;;10.95;;
11303;SDS011;5707;49.588;12.148;2023-02-08T04:14:17;11.32;;;10.32;;
11303;SDS011;5707;49.588;12.148;2023-02-08T04:16:43;11.52;;;10.55;;
11303;SDS011;5707;49.588;12.148;2023-02-08T04:19:08;11.07;;;10.07;;
11303;SDS011;5707;49.588;12.148;2023-02-08T04:21:34;10.45;;;9.55;;
11303;SDS011;5707;49.588;12.148;2023-02-08T04:23:59;10.40;;;9.50;;
11303;SDS011;5707;49.588;12.148;2023-02-08T04:26:25;11.25;;;10.27;;
11303;SDS011;5707;49.588;12.148;2023-02-08T04:28:51;12.43;;;11.10;;
11303;SDS011;5707;49.588;12.148;2023-02-08T04:31:17;10.77;;;9.85;;
11303;SDS011;5707;49.588;12.148;2023-02-08T04:33:42;11.70;;;10.55;;
11303;SDS011;5707;49.588;12.148;2023-02-08T04:36:08;11.45;;;9.95;;
11303;SDS011;5707;49.588;12.148;2023-02-08T04:38:34;11.07;;;10.10;;
11303;SDS011;5707;49.588;12.148;2023-02-08T04:40:59;11.63;;;10.55;;
11303;SDS011;5707;49.588;12.148;2023-02-08T04:43:25;10.43;;;9.43;;
11303;SDS011;5707;49.588;12.148;2023-02-08T04:45:51;11.38;;;10.25;;
11303;SDS011;5707;49.588;12.148;2023-02-08T04:48:17;10.68;;;9.77;;
11303;SDS011;5707;49.588;12.148;2023-02-08T04:50:43;11.75;;;10.45;;
11303;SDS011;5707;49.588;12.148;2023-02-08T04:53:09;11.30;;;10.23;;
11303;SDS011;5707;49.588;12.148;2023-02-08T04:55:35;10.75;;;9.88;;
11303;SDS011;5707;49.588;12.148;2023-02-08T04:58:00;11.02;;;9.95;;
11303;SDS011;5707;49.588;12.148;2023-02-08T05:00:26;10.80;;;9.90;;
11303;SDS011;5707;49.588;12.148;2023-02-08T05:02:52;12.05;;;10.70;;
11303;SDS011;5707;49.588;12.148;2023-02-08T05:05:19;10.57;;;9.63;;
11303;SDS011;5707;49.588;12.148;2023-02-08T05:07:44;10.77;;;9.73;;
11303;SDS011;5707;49.588;12.148;2023-02-08T05:10:10;11.63;;;10.73;;
11303;SDS011;5707;49.588;12.148;2023-02-08T05:12:36;12.27;;;11.18;;
11303;SDS011;5707;49.588;12.148;2023-02-08T05:15:01;14.43;;;13.02;;
11303;SDS011;5707;49.588;12.148;2023-02-08T05:17:27;14.40;;;12.90;;
11303;SDS011;5707;49.588;12.148;2023-02-08T05:19:53;13.43;;;12.13;;
11303;SDS011;5707;49.588;12.148;2023-02-08T05:22:18;12.40;;;11.20;;
11303;SDS011;5707;49.588;12.148;2023-02-08T05:24:44;14.68;;;13.27;;
11303;SDS011;5707;49.588;12.148;2023-02-08T05:27:09;13.30;;;12.00;;
11303;SDS011;5707;49.588;12.148;2023-02-08T05:29:35;10.90;;;9.98;;
11303;SDS011;5707;49.588;12.148;2023-02-08T05:32:00;11.73;;;10.25;;
11303;SDS011;5707;49.588;12.148;2023-02-08T05:34:26;11.38;;;10.32;;
11303;SDS011;5707;49.588;12.148;2023-02-08T05:36:51;12.30;;;11.30;;
11303;SDS011;5707;49.588;12.148;2023-02-08T05:39:17;10.95;;;9.88;;
11303;SDS011;5707;49.588;12.148;2023-02-08T05:41:43;11.40;;;10.30;;
11303;SDS011;5707;49.588;12.148;2023-02-08T05:44:08;10.30;;;9.37;;
11303;SDS011;5707;49.588;12.148;2023-02-08T05:46:34;10.35;;;9.35;;
11303;SDS011;5707;49.588;12.148;2023-02-08T05:48:59;10.48;;;9.57;;
11303;SDS011;5707;49.588;12.148;2023-02-08T05:51:25;9.32;;;8.50;;
11303;SDS011;5707;49.588;12.148;2023-02-08T05:53:50;12.00;;;10.90;;
11303;SDS011;5707;49.588;12.148;2023-02-08T05:56:16;12.10;;;10.90;;
11303;SDS011;5707;49.588;12.148;2023-02-08T05:58:41;11.60;;;10.60;;
11303;SDS011;5707;49.588;12.148;2023-02-08T06:01:08;11.15;;;10.07;;
11303;SDS011;5707;49.588;12.148;2023-02-08T06:03:34;9.98;;;9.18;;
11303;SDS011;5707;49.588;12.148;2023-02-08T06:06:00;11.13;;;10.02;;
11303;SDS011;5707;49.588;12.148;2023-02-08T06:08:26;12.00;;;10.85;;
11303;SDS011;5707;49.588;12.148;2023-02-08T06:10:51;13.00;;;10.82;;
11303;SDS011;5707;49.588;12.148;2023-02-08T06:13:17;10.95;;;9.85;;
11303;SDS011;5707;49.588;12.148;2023-02-08T06:15:43;10.63;;;9.73;;
11303;SDS011;5707;49.588;12.148;2023-02-08T06:18:08;10.82;;;9.77;;
11303;SDS011;5707;49.588;12.148;2023-02-08T06:20:35;11.88;;;10.88;;
11303;SDS011;5707;49.588;12.148;2023-02-08T06:23:02;12.13;;;11.02;;
11303;SDS011;5707;49.588;12.148;2023-02-08T06:25:27;13.18;;;11.77;;
11303;SDS011;5707;49.588;12.148;2023-02-08T06:27:53;11.95;;;10.80;;
11303;SDS011;5707;49.588;12.148;2023-02-08T06:30:19;13.02;;;11.82;;
11303;SDS011;5707;49.588;12.148;2023-02-08T06:32:44;13.60;;;12.25;;
11303;SDS011;5707;49.588;12.148;2023-02-08T06:35:10;13.95;;;12.07;;
11303;SDS011;5707;49.588;12.148;2023-02-08T06:37:35;12.73;;;11.52;;
11303;SDS011;5707;49.588;12.148;2023-02-08T06:40:02;12.82;;;11.63;;
11303;SDS011;5707;49.588;12.148;2023-02-08T06:42:29;14.95;;;11.75;;
11303;SDS011;5707;49.588;12.148;2023-02-08T06:44:54;11.90;;;10.85;;
11303;SDS011;5707;49.588;12.148;2023-02-08T06:47:22;13.07;;;11.27;;
11303;SDS011;5707;49.588;12.148;2023-02-08T06:49:48;12.45;;;11.35;;
11303;SDS011;5707;49.588;12.148;2023-02-08T06:52:14;11.80;;;10.68;;
11303;SDS011;5707;49.588;12.148;2023-02-08T06:54:40;12.15;;;10.93;;
11303;SDS011;5707;49.588;12.148;2023-02-08T06:57:05;12.98;;;11.68;;
11303;SDS011;5707;49.588;12.148;2023-02-08T06:59:32;13.35;;;12.02;;
11303;SDS011;5707;49.588;12.148;2023-02-08T07:01:58;14.02;;;12.75;;
11303;SDS011;5707;49.588;12.148;2023-02-08T07:04:23;14.80;;;13.40;;
11303;SDS011;5707;49.588;12.148;2023-02-08T07:06:49;13.43;;;12.25;;
11303;SDS011;5707;49.588;12.148;2023-02-08T07:09:15;14.68;;;13.02;;
11303;SDS011;5707;49.588;12.148;2023-02-08T07:11:41;14.52;;;12.55;;
11303;SDS011;5707;49.588;12.148;2023-02-08T07:14:09;13.20;;;12.02;;
11303;SDS011;5707;49.588;12.148;2023-02-08T07:16:37;14.57;;;13.18;;
11303;SDS011;5707;49.588;12.148;2023-02-08T07:19:02;13.48;;;12.20;;
11303;SDS011;5707;49.588;12.148;2023-02-08T07:21:28;12.80;;;11.60;;
11303;SDS011;5707;49.588;12.148;2023-02-08T07:23:53;12.00;;;10.88;;
11303;SDS011;5707;49.588;12.148;2023-02-08T07:26:19;12.98;;;11.88;;
11303;SDS011;5707;49.588;12.148;2023-02-08T07:28:44;16.67;;;14.35;;
11303;SDS011;5707;49.588;12.148;2023-02-08T07:31:11;15.88;;;14.38;;
11303;SDS011;5707;49.588;12.148;2023-02-08T07:33:39;16.20;;;14.60;;
11303;SDS011;5707;49.588;12.148;2023-02-08T07:36:05;15.80;;;14.30;;
11303;SDS011;5707;49.588;12.148;2023-02-08T07:38:32;17.52;;;15.75;;
11303;SDS011;5707;49.588;12.148;2023-02-08T07:41:04;17.67;;;16.08;;
11303;SDS011;5707;49.588;12.148;2023-02-08T07:43:35;19.08;;;16.58;;
11303;SDS011;5707;49.588;12.148;2023-02-08T07:46:06;19.60;;;17.20;;
11303;SDS011;5707;49.588;12.148;2023-02-08T07:48:36;18.67;;;16.83;;
11303;SDS011;5707;49.588;12.148;2023-02-08T07:51:02;18.48;;;16.60;;
11303;SDS011;5707;49.588;12.148;2023-02-08T07:53:28;17.48;;;15.38;;
11303;SDS011;5707;49.588;12.148;2023-02-08T07:55:54;16.95;;;15.35;;
11303;SDS011;5707;49.588;12.148;2023-02-08T07:58:20;17.17;;;15.27;;
11303;SDS011;5707;49.588;12.148;2023-02-08T08:00:47;19.08;;;17.08;;
11303;SDS011;5707;49.588;12.148;2023-02-08T08:03:12;17.52;;;15.80;;
11303;SDS011;5707;49.588;12.148;2023-02-08T08:05:41;21.55;;;19.23;;
11303;SDS011;5707;49.588;12.148;2023-02-08T08:08:07;21.17;;;19.08;;
11303;SDS011;5707;49.588;12.148;2023-02-08T08:10:34;23.77;;;19.33;;
11303;SDS011;5707;49.588;12.148;2023-02-08T08:13:00;21.13;;;18.92;;
11303;SDS011;5707;49.588;12.148;2023-02-08T08:15:25;22.35;;;17.80;;
11303;SDS011;5707;49.588;12.148;2023-02-08T08:17:51;21.63;;;19.40;;
11303;SDS011;5707;49.588;12.148;2023-02-08T08:20:17;22.20;;;19.77;;
11303;SDS011;5707;49.588;12.148;2023-02-08T08:22:43;21.35;;;19.08;;
11303;SDS011;5707;49.588;12.148;2023-02-08T08:25:09;26.40;;;20.60;;
11303;SDS011;5707;49.588;12.148;2023-02-08T08:27:34;24.90;;;22.15;;
11303;SDS011;5707;49.588;12.148;2023-02-08T08:30:00;21.83;;;19.48;;
11303;SDS011;5707;49.588;12.148;2023-02-08T08:32:26;22.17;;;19.98;;
11303;SDS011;5707;49.588;12.148;2023-02-08T08:34:51;24.13;;;20.45;;
11303;SDS011;5707;49.588;12.148;2023-02-08T08:37:17;23.95;;;19.63;;
11303;SDS011;5707;49.588;12.148;2023-02-08T08:39:43;24.48;;;20.65;;
11303;SDS011;5707;49.588;12.148;2023-02-08T08:42:08;27.75;;;22.23;;
11303;SDS011;5707;49.588;12.148;2023-02-08T08:44:34;21.48;;;19.13;;
11303;SDS011;5707;49.588;12.148;2023-02-08T08:47:00;20.40;;;18.25;;
11303;SDS011;5707;49.588;12.148;2023-02-08T08:49:27;25.17;;;19.85;;
11303;SDS011;5707;49.588;12.148;2023-02-08T08:51:53;19.35;;;16.80;;
11303;SDS011;5707;49.588;12.148;2023-02-08T08:54:19;21.60;;;19.38;;
11303;SDS011;5707;49.588;12.148;2023-02-08T08:56:45;21.50;;;18.92;;
11303;SDS011;5707;49.588;12.148;2023-02-08T08:59:11;19.38;;;17.48;;
11303;SDS011;5707;49.588;12.148;2023-02-08T09:01:37;19.08;;;16.30;;
11303;SDS011;5707;49.588;12.148;2023-02-08T09:04:04;23.63;;;17.70;;
11303;SDS011;5707;49.588;12.148;2023-02-08T09:06:29;25.05;;;19.73;;
11303;SDS011;5707;49.588;12.148;2023-02-08T09:08:55;20.80;;;18.58;;
11303;SDS011;5707;49.588;12.148;2023-02-08T09:11:20;20.65;;;18.52;;
11303;SDS011;5707;49.588;12.148;2023-02-08T09:13:46;21.25;;;19.08;;
11303;SDS011;5707;49.588;12.148;2023-02-08T09:16:16;20.13;;;17.95;;
11303;SDS011;5707;49.588;12.148;2023-02-08T09:18:42;21.08;;;18.83;;
11303;SDS011;5707;49.588;12.148;2023-02-08T09:21:16;22.00;;;19.27;;
11303;SDS011;5707;49.588;12.148;2023-02-08T09:23:43;24.02;;;20.00;;
11303;SDS011;5707;49.588;12.148;2023-02-08T09:26:11;20.95;;;18.75;;
11303;SDS011;5707;49.588;12.148;2023-02-08T09:28:39;20.85;;;18.75;;
11303;SDS011;5707;49.588;12.148;2023-02-08T09:31:06;20.25;;;16.38;;
11303;SDS011;5707;49.588;12.148;2023-02-08T09:33:37;21.95;;;17.02;;
11303;SDS011;5707;49.588;12.148;2023-02-08T09:36:03;17.98;;;13.43;;
11303;SDS011;5707;49.588;12.148;2023-02-08T09:38:30;25.63;;;18.02;;
11303;SDS011;5707;49.588;12.148;2023-02-08T09:41:00;19.20;;;16.08;;
11303;SDS011;5707;49.588;12.148;2023-02-08T09:43:30;18.90;;;16.90;;
11303;SDS011;5707;49.588;12.148;2023-02-08T09:46:20;19.25;;;17.38;;
11303;SDS011;5707;49.588;12.148;2023-02-08T09:48:49;21.80;;;19.52;;
11303;SDS011;5707;49.588;12.148;2023-02-08T09:53:53;19.92;;;17.95;;
11303;SDS011;5707;49.588;12.148;2023-02-08T09:56:28;22.00;;;18.08;;
11303;SDS011;5707;49.588;12.148;2023-02-08T09:58:56;21.17;;;18.02;;
11303;SDS011;5707;49.588;12.148;2023-02-08T10:01:27;22.67;;;17.92;;
11303;SDS011;5707;49.588;12.148;2023-02-08T10:05:01;17.90;;;16.00;;
11303;SDS011;5707;49.588;12.148;2023-02-08T10:07:10;22.27;;;18.25;;
11303;SDS011;5707;49.588;12.148;2023-02-08T10:09:36;20.33;;;18.33;;
11303;SDS011;5707;49.588;12.148;2023-02-08T10:22:55;19.38;;;16.83;;
11303;SDS011;5707;49.588;12.148;2023-02-08T10:28:09;19.10;;;17.10;;
11303;SDS011;5707;49.588;12.148;2023-02-08T10:30:56;21.38;;;17.08;;
11303;SDS011;5707;49.588;12.148;2023-02-08T10:36:11;19.15;;;16.98;;
11303;SDS011;5707;49.588;12.148;2023-02-08T10:38:40;20.02;;;17.58;;
11303;SDS011;5707;49.588;12.148;2023-02-08T10:41:06;19.77;;;17.15;;
11303;SDS011;5707;49.588;12.148;2023-02-08T10:43:40;20.25;;;18.20;;
11303;SDS011;5707;49.588;12.148;2023-02-08T10:48:48;19.48;;;17.50;;
11303;SDS011;5707;49.588;12.148;2023-02-08T10:51:24;19.77;;;17.25;;
11303;SDS011;5707;49.588;12.148;2023-02-08T10:53:50;20.77;;;18.50;;
11303;SDS011;5707;49.588;12.148;2023-02-08T10:58:53;16.17;;;14.65;;
11303;SDS011;5707;49.588;12.148;2023-02-08T11:01:20;56.13;;;18.38;;
11303;SDS011;5707;49.588;12.148;2023-02-08T11:06:41;16.90;;;15.27;;
11303;SDS011;5707;49.588;12.148;2023-02-08T11:09:30;15.57;;;13.90;;
11303;SDS011;5707;49.588;12.148;2023-02-08T11:11:55;33.60;;;15.40;;
11303;SDS011;5707;49.588;12.148;2023-02-08T11:14:28;15.38;;;13.90;;
11303;SDS011;5707;49.588;12.148;2023-02-08T11:16:58;22.63;;;14.93;;
11303;SDS011;5707;49.588;12.148;2023-02-08T11:19:31;17.25;;;15.48;;
11303;SDS011;5707;49.588;12.148;2023-02-08T11:21:58;17.67;;;15.60;;
11303;SDS011;5707;49.588;12.148;2023-02-08T11:24:30;16.85;;;15.00;;
11303;SDS011;5707;49.588;12.148;2023-02-08T11:27:49;16.88;;;14.98;;
11303;SDS011;5707;49.588;12.148;2023-02-08T11:32:40;16.17;;;14.65;;
11303;SDS011;5707;49.588;12.148;2023-02-08T11:35:11;16.25;;;14.75;;
11303;SDS011;5707;49.588;12.148;2023-02-08T11:37:55;17.13;;;15.43;;
11303;SDS011;5707;49.588;12.148;2023-02-08T11:40:36;15.32;;;13.82;;
11303;SDS011;5707;49.588;12.148;2023-02-08T11:43:16;15.82;;;14.43;;
11303;SDS011;5707;49.588;12.148;2023-02-08T11:45:49;16.08;;;14.00;;
11303;SDS011;5707;49.588;12.148;2023-02-08T11:48:20;17.20;;;15.60;;
11303;SDS011;5707;49.588;12.148;2023-02-08T11:50:53;15.93;;;14.48;;
11303;SDS011;5707;49.588;12.148;2023-02-08T11:53:35;12.57;;;11.02;;
11303;SDS011;5707;49.588;12.148;2023-02-08T12:01:34;15.15;;;13.75;;
11303;SDS011;5707;49.588;12.148;2023-02-08T12:04:03;15.65;;;14.45;;
11303;SDS011;5707;49.588;12.148;2023-02-08T12:06:41;17.95;;;15.05;;
11303;SDS011;5707;49.588;12.148;2023-02-08T12:09:47;16.38;;;13.60;;
11303;SDS011;5707;49.588;12.148;2023-02-08T12:12:49;17.65;;;14.05;;
11303;SDS011;5707;49.588;12.148;2023-02-08T12:17:55;15.93;;;13.52;;
11303;SDS011;5707;49.588;12.148;2023-02-08T12:23:41;13.73;;;12.35;;
11303;SDS011;5707;49.588;12.148;2023-02-08T12:31:47;13.07;;;11.80;;
11303;SDS011;5707;49.588;12.148;2023-02-08T12:39:50;12.75;;;11.65;;
11303;SDS011;5707;49.588;12.148;2023-02-08T12:48:44;12.05;;;11.02;;
11303;SDS011;5707;49.588;12.148;2023-02-08T12:53:56;12.55;;;11.07;;
11303;SDS011;5707;49.588;12.148;2023-02-08T12:56:28;14.20;;;12.77;;
11303;SDS011;5707;49.588;12.148;2023-02-08T12:59:00;15.25;;;12.23;;
11303;SDS011;5707;49.588;12.148;2023-02-08T13:01:34;12.65;;;11.43;;
11303;SDS011;5707;49.588;12.148;2023-02-08T13:04:10;15.20;;;10.88;;
11303;SDS011;5707;49.588;12.148;2023-02-08T13:06:40;11.48;;;10.48;;
11303;SDS011;5707;49.588;12.148;2023-02-08T13:09:13;12.95;;;11.75;;
11303;SDS011;5707;49.588;12.148;2023-02-08T13:14:50;18.35;;;11.90;;
11303;SDS011;5707;49.588;12.148;2023-02-08T13:17:25;11.88;;;10.68;;
11303;SDS011;5707;49.588;12.148;2023-02-08T13:22:43;12.73;;;11.45;;
11303;SDS011;5707;49.588;12.148;2023-02-08T13:25:20;33.15;;;12.50;;
11303;SDS011;5707;49.588;12.148;2023-02-08T13:27:52;10.45;;;9.43;;
11303;SDS011;5707;49.588;12.148;2023-02-08T13:30:19;11.95;;;10.93;;
11303;SDS011;5707;49.588;12.148;2023-02-08T13:32:46;12.30;;;11.20;;
11303;SDS011;5707;49.588;12.148;2023-02-08T13:35:18;13.75;;;11.10;;
11303;SDS011;5707;49.588;12.148;2023-02-08T13:37:49;11.43;;;10.32;;
11303;SDS011;5707;49.588;12.148;2023-02-08T13:40:25;12.68;;;11.40;;
11303;SDS011;5707;49.588;12.148;2023-02-08T13:42:57;11.60;;;10.63;;
11303;SDS011;5707;49.588;12.148;2023-02-08T13:45:31;13.20;;;12.00;;
11303;SDS011;5707;49.588;12.148;2023-02-08T13:48:01;13.13;;;11.13;;
11303;SDS011;5707;49.588;12.148;2023-02-08T13:53:08;11.48;;;10.38;;
11303;SDS011;5707;49.588;12.148;2023-02-08T13:55:40;12.18;;;11.00;;
11303;SDS011;5707;49.588;12.148;2023-02-08T14:01:24;12.95;;;10.57;;
11303;SDS011;5707;49.588;12.148;2023-02-08T14:03:29;10.20;;;9.25;;
11303;SDS011;5707;49.588;12.148;2023-02-08T14:14:00;11.02;;;9.93;;
11303;SDS011;5707;49.588;12.148;2023-02-08T14:19:19;12.70;;;11.57;;
11303;SDS011;5707;49.588;12.148;2023-02-08T14:21:48;12.23;;;11.05;;
11303;SDS011;5707;49.588;12.148;2023-02-08T14:24:26;10.98;;;9.95;;
11303;SDS011;5707;49.588;12.148;2023-02-08T14:27:17;12.18;;;11.05;;
11303;SDS011;5707;49.588;12.148;2023-02-08T14:30:04;12.55;;;11.25;;
11303;SDS011;5707;49.588;12.148;2023-02-08T14:33:15;13.35;;;10.85;;
11303;SDS011;5707;49.588;12.148;2023-02-08T14:35:49;13.70;;;12.52;;
11303;SDS011;5707;49.588;12.148;2023-02-08T14:43:33;11.63;;;9.20;;
11303;SDS011;5707;49.588;12.148;2023-02-08T14:49:13;11.13;;;10.02;;
11303;SDS011;5707;49.588;12.148;2023-02-08T14:51:43;12.35;;;11.20;;
11303;SDS011;5707;49.588;12.148;2023-02-08T14:54:21;12.85;;;11.63;;
11303;SDS011;5707;49.588;12.148;2023-02-08T14:56:59;13.45;;;12.10;;
11303;SDS011;5707;49.588;12.148;2023-02-08T14:59:32;16.23;;;12.93;;
11303;SDS011;5707;49.588;12.148;2023-02-08T15:02:00;14.23;;;12.68;;
11303;SDS011;5707;49.588;12.148;2023-02-08T15:04:27;15.68;;;12.73;;
11303;SDS011;5707;49.588;12.148;2023-02-08T15:09:39;15.45;;;13.05;;
11303;SDS011;5707;49.588;12.148;2023-02-08T15:14:39;13.65;;;12.35;;
11303;SDS011;5707;49.588;12.148;2023-02-08T15:17:05;15.10;;;12.85;;
11303;SDS011;5707;49.588;12.148;2023-02-08T15:19:39;13.88;;;12.57;;
11303;SDS011;5707;49.588;12.148;2023-02-08T15:24:51;14.40;;;12.60;;
11303;SDS011;5707;49.588;12.148;2023-02-08T15:27:22;19.00;;;14.20;;
11303;SDS011;5707;49.588;12.148;2023-02-08T15:29:56;15.07;;;13.52;;
11303;SDS011;5707;49.588;12.148;2023-02-08T15:32:23;14.82;;;12.65;;
11303;SDS011;5707;49.588;12.148;2023-02-08T15:34:54;17.67;;;13.90;;
11303;SDS011;5707;49.588;12.148;2023-02-08T15:37:22;15.85;;;13.70;;
11303;SDS011;5707;49.588;12.148;2023-02-08T15:39:55;16.00;;;13.65;;
11303;SDS011;5707;49.588;12.148;2023-02-08T15:42:30;13.07;;;11.52;;
11303;SDS011;5707;49.588;12.148;2023-02-08T15:44:57;14.73;;;12.15;;
11303;SDS011;5707;49.588;12.148;2023-02-08T15:47:27;12.93;;;11.52;;
11303;SDS011;5707;49.588;12.148;2023-02-08T15:50:01;13.88;;;12.57;;
11303;SDS011;5707;49.588;12.148;2023-02-08T15:52:31;23.77;;;13.20;;
11303;SDS011;5707;49.588;12.148;2023-02-08T15:54:59;13.02;;;11.18;;
11303;SDS011;5707;49.588;12.148;2023-02-08T16:02:40;13.05;;;11.80;;
11303;SDS011;5707;49.588;12.148;2023-02-08T16:05:11;13.10;;;11.88;;
11303;SDS011;5707;49.588;12.148;2023-02-08T16:07:44;13.93;;;12.48;;
11303;SDS011;5707;49.588;12.148;2023-02-08T16:10:20;16.00;;;11.60;;
11303;SDS011;5707;49.588;12.148;2023-02-08T16:13:06;13.80;;;12.52;;
11303;SDS011;5707;49.588;12.148;2023-02-08T16:15:52;12.73;;;11.55;;
11303;SDS011;5707;49.588;12.148;2023-02-08T16:21:18;12.90;;;11.70;;
11303;SDS011;5707;49.588;12.148;2023-02-08T16:23:54;12.95;;;10.70;;
11303;SDS011;5707;49.588;12.148;2023-02-08T16:26:24;12.32;;;11.10;;
11303;SDS011;5707;49.588;12.148;2023-02-08T16:29:02;13.60;;;12.30;;
11303;SDS011;5707;49.588;12.148;2023-02-08T16:31:33;12.68;;;11.48;;
11303;SDS011;5707;49.588;12.148;2023-02-08T16:36:33;13.23;;;11.95;;
11303;SDS011;5707;49.588;12.148;2023-02-08T16:44:27;13.85;;;12.48;;
11303;SDS011;5707;49.588;12.148;2023-02-08T16:46:58;12.70;;;11.40;;
11303;SDS011;5707;49.588;12.148;2023-02-08T16:49:24;11.80;;;10.73;;
11303;SDS011;5707;49.588;12.148;2023-02-08T16:51:54;13.38;;;12.02;;
11303;SDS011;5707;49.588;12.148;2023-02-08T16:54:21;12.52;;;11.43;;
11303;SDS011;5707;49.588;12.148;2023-02-08T16:56:49;12.98;;;11.82;;
11303;SDS011;5707;49.588;12.148;2023-02-08T16:59:20;12.43;;;11.23;;
11303;SDS011;5707;49.588;12.148;2023-02-08T17:01:45;13.30;;;12.07;;
11303;SDS011;5707;49.588;12.148;2023-02-08T17:04:13;11.88;;;10.73;;
11303;SDS011;5707;49.588;12.148;2023-02-08T17:06:41;13.73;;;12.40;;
11303;SDS011;5707;49.588;12.148;2023-02-08T17:09:10;13.98;;;12.02;;
11303;SDS011;5707;49.588;12.148;2023-02-08T17:11:37;12.65;;;11.35;;